首页
METAR-TAF:

METAR-TAF

机场 :

桑給巴爾, 坦桑尼亚

纬度: 06-13S, 经度: 039-13E, 海拔: 15米

当前天气观测

该预报发布于1小时和4分钟前的13:00 UTC
风速12节,风向东北
温度 33°C
湿度 53%
气压 1007 hPa
能见度10公里或以上
少量云层高于2600英尺

METAR: HTZA 201300Z 05012KT 9999 FEW026 33/22 Q1007 NOSIG

时间: 17:04 (14:04 UTC)

预报

该预报发布于3小时和4分钟前的11:00 UTC
预报有效从20日的 12点(UTC)到 21日的 12点(UTC)
风速节,风向
能见度10公里或以上
散云层高于1900英尺
少量云层高于2000英尺, 积雨云.
多云层高于8000英尺
成为
从 20日的 14点(UTC)到 20日的 15点(UTC)
风速10节,风向南转西南
短暂存在
从 20日的 21点(UTC)到 21日的 06点(UTC)
雷暴, 雨

TAF: HTZA 201100Z 2012/2112 00000KT 9999 SCT019 FEW020CB BKN080 BECMG 2014/2015 21010KT TEMPO 2021/2106 TSRA

超过4000个机场的气象观测和天气预报(METAR&TAF报告)。

可查询的气象台以黄色和红色小点在地图上表示。

将鼠标移到小点上方,可查看气象台名称。

然后点击查看天气观测和预报。

如需切换地图:点击带黑十字的绿色按钮放大地图;点击带横线的绿色按钮缩小地图;或者点击绿色箭头查看邻近地区的地图。


METAR-TAF: